Nearby METAR Reports

 

KPAE - Everett, Washington, USA
Distance from station: NW 15mi, 25km
Updated: 12/10/2019 10:01am
Fog, Overcast
Fog, Overcast
 Wind from SSE
Wind: SSE 12 mph , 19 km/h
Temperature: 39°F , 4°C
Wind Chill: 32°F , 0°C
Dew Point: 37°F , 3°C
Humidity: 93%
Barometer: 30.14 inHg , 1020.7 hPa
Summary: Fog
Clouds: Overcast
Visibility: 1/2 mile , 0.8 km
Cloud details: Overcast 200 ft
2019/12/10 18:01 KPAE 101801Z 15010KT 1/2SM R16R/P6000FT FG OVC002 04/03 A3014 RMK AO2 T00390033
KBFI - Seattle/Boeing, Washington, USA
Distance from station: SW 20mi, 31km
Updated: 12/10/2019 10:01am
Overcast
Overcast
 Wind from SSE
Wind: SSE 7 mph , 11 km/h
Temperature: 43°F , 6°C
Wind Chill: 39°F , 4°C
Dew Point: 37°F , 3°C
Humidity: 81%
Barometer: 30.16 inHg , 1021.3 hPa
Clouds: Overcast
Visibility: 10 miles , 16 km
Cloud details: Overcast 900 ft
2019/12/10 18:01 KBFI 101801Z 15006KT 10SM OVC009 06/03 A3016 RMK AO2 T00560033
KSEA - Seattle/Metro, Washington, USA
Distance from station: SSW 25mi, 41km
Updated: 12/10/2019 9:53am
Mist, Overcast
Mist, Overcast
 Wind from S
Wind: S 5 mph , 7 km/h
Temperature: 39°F , 4°C
Wind Chill: 35°F , 2°C
Dew Point: 37°F , 3°C
Humidity: 93%
Barometer: 30.15 inHg , 1021 hPa
Summary: Mist
Clouds: Overcast
Visibility: 3 miles , 5 km
Cloud details: Overcast 600 ft
2019/12/10 17:53 KSEA 101753Z 17004KT 3SM BR OVC006 04/03 A3015 RMK AO2 SLP220 T00440028 10050 20044 55004
 
KAWO - Arlington Muni, Washington, USA
Distance from station: NNW 28mi, 46km
Updated: 12/10/2019 9:56am
Clear
Clear
 Wind from calm
Wind: Calm
Temperature: 36°F , 2°C
Dew Point: 34°F , 1°C
Humidity: 93%
Barometer: 30.16 inHg , 1021.3 hPa
Clouds: Clear
Visibility: 10 miles , 16 km
2019/12/10 17:56 KAWO 101756Z AUTO 00000KT 10SM CLR 02/01 A3016 RMK AO2 SLP219 6//// T00170011 10028 20011 55007 FZRANO PNO $
KPWT - Bremerton Ntnl, Washington, USA
Distance from station: WSW 38mi, 61km
Updated: 12/10/2019 10:12am
Overcast
Overcast
 Wind from SSW
Wind: SSW 9 mph , 15 km/h
Temperature: 43°F , 6°C
Wind Chill: 38°F , 3°C
Dew Point: 39°F , 4°C
Humidity: 87%
Barometer: 30.15 inHg , 1021 hPa
Clouds: Overcast
Visibility: 10 miles , 16 km
Cloud details: Partly cloudy 600 ft
Mostly cloudy 6000 ft
Overcast 7000 ft
2019/12/10 18:12 KPWT 101812Z AUTO 21008KT 10SM SCT006 BKN060 OVC070 06/04 A3015 RMK AO2 PNO $
KTIW - Tacoma, Washington, USA
Distance from station: SW 43mi, 69km
Updated: 12/10/2019 9:53am
Overcast
Overcast
 Wind from SW
Wind: SW 8 mph , 13 km/h
Temperature: 39°F , 4°C
Wind Chill: 33°F , 1°C
Dew Point: 37°F , 3°C
Humidity: 93%
Barometer: 30.16 inHg , 1021.3 hPa
Clouds: Overcast
Visibility: 10 miles , 16 km
Cloud details: Overcast 900 ft
2019/12/10 17:53 KTIW 101753Z 22007KT 10SM OVC009 04/03 A3016 RMK AO2 SLP215 T00440028 10050 20039 55002
 
KPLU - Puyallup/Thun, Washington, USA
Distance from station: SSW 47mi, 76km
Updated: 12/10/2019 9:55am
Mist, Overcast
Mist, Overcast
 Wind from calm
Wind: Calm
Temperature: 37°F , 3°C
Dew Point: 37°F , 3°C
Humidity: 100%
Barometer: 30.15 inHg , 1021 hPa
Summary: Mist
Clouds: Overcast
Visibility: 3/4 mile , 1.2 km
Cloud details: Overcast 300 ft
2019/12/10 17:55 KPLU 101755Z AUTO 00000KT 3/4SM BR OVC003 03/03 A3015 RMK AO2
KSMP - Stampede Pass, Washington, USA
Distance from station: SE 47mi, 76km
Updated: 12/10/2019 10:06am
Freezing fog, Overcast
Freezing fog, Overcast
 Wind from E
Wind: E 5 mph , 7 km/h
Temperature: 27°F , -3°C
Wind Chill: 21°F , -6°C
Dew Point: 25°F , -4°C
Humidity: 93%
Barometer: 30.11 inHg , 1019.6 hPa
Summary: Freezing Fog
Clouds: Overcast
Visibility: 1/2 mile , 0.8 km
Cloud details: Overcast 100 ft
2019/12/10 18:06 KSMP 101806Z AUTO 08004KT 1/2SM FZFG VV001 M03/M04 A3011 RMK AO2 I1001 T10281039
KNUW - Whidbey Is. Nas, Washington, USA
Distance from station: NW 49mi, 79km
Updated: 12/10/2019 9:56am
Mist, Overcast
Mist, Overcast
 Wind from E
Wind: E 8 mph , 13 km/h
Temperature: 43°F , 6°C
Wind Chill: 38°F , 3°C
Dew Point: 39°F , 4°C
Humidity: 87%
Barometer: 30.18 inHg , 1022 hPa
Summary: Mist
Clouds: Overcast
Visibility: 6 miles , 10 km
Cloud details: Partly cloudy 500 ft
Overcast 800 ft
2019/12/10 17:56 KNUW 101756Z 09007KT 6SM BR SCT005 OVC008 06/04 A3018 RMK AO2 RAB25E53 SLP218 P0000 60000 T00610039 10067 20056 55002 $
 
KBVS - Burlington/Mt V, Washington, USA
Distance from station: NNW 51mi, 83km
Updated: 12/10/2019 9:55am
Fog, Overcast
Fog, Overcast
 Wind from calm
Wind: Calm
Temperature: 37°F , 3°C
Dew Point: 37°F , 3°C
Humidity: 100%
Barometer: 30.16 inHg , 1021.3 hPa
Summary: Fog
Clouds: Overcast
Visibility: less than 1/4 mile , 0.4 km
Cloud details: Overcast 200 ft
2019/12/10 17:55 KBVS 101755Z AUTO 00000KT M1/4SM FG OVC002 03/03 A3016 RMK A01
KSHN - Shelton, Washington, USA
Distance from station: SW 63mi, 101km
Updated: 12/10/2019 9:53am
Mist, Overcast
Mist, Overcast
 Wind from calm
Wind: Calm
Temperature: 41°F , 5°C
Dew Point: 39°F , 4°C
Humidity: 93%
Barometer: 30.13 inHg , 1020.3 hPa
Summary: Mist
Clouds: Overcast
Visibility: 2 1/2 miles , 4 km
Cloud details: Overcast 3300 ft
2019/12/10 17:53 KSHN 101753Z AUTO 00000KT 2 1/2SM BR OVC033 05/04 A3013 RMK AO2 SLP207 T00500039 10050 20039 53001
KOLM - Olympia, Washington, USA
Distance from station: SW 68mi, 110km
Updated: 12/10/2019 9:54am
Light rain, Overcast
Light rain, Overcast
 Wind from SSW
Wind: SSW 5 mph , 7 km/h
Temperature: 43°F , 6°C
Wind Chill: 40°F , 4°C
Dew Point: 37°F , 3°C
Humidity: 81%
Barometer: 30.16 inHg , 1021.3 hPa
Summary: Light rain
Clouds: Overcast
Visibility: 10 miles , 16 km
Cloud details: Mostly cloudy 1400 ft
Mostly cloudy 4500 ft
Overcast 5500 ft
2019/12/10 17:54 KOLM 101754Z 20004KT 10SM -RA BKN014 BKN045 OVC055 06/03 A3016 RMK AO2 RAB50 SLP213 P0000 60000 T00560033 10056 20044 56003
 
KCLM - Port Angeles, Washington, USA
Distance from station: WNW 72mi, 115km
Updated: 12/10/2019 9:53am
Light rain, Overcast
Light rain, Overcast
 Wind from SW
Wind: SW 6 mph , 9 km/h
Temperature: 41°F , 5°C
Wind Chill: 37°F , 3°C
Dew Point: 37°F , 3°C
Humidity: 87%
Barometer: 30.13 inHg , 1020.3 hPa
Summary: Light rain
Clouds: Overcast
Visibility: 10 miles , 16 km
Cloud details: Mostly cloudy 1100 ft
Overcast 1600 ft
2019/12/10 17:53 KCLM 101753Z AUTO 23005KT 10SM -RA BKN011 OVC016 05/03 A3013 RMK AO2 RAB33 SLP205 P0000 60000 T00500033 10056 20050 53003
CWYJ - Victoria Univ, British Columbia, Canada
Distance from station: NW 75mi, 121km
Updated: 12/10/2019 10:00am

 Wind from calm
Wind: Calm
Temperature: 43°F , 6°C
Dew Point: 41°F , 5°C
Humidity: 93%
2019/12/10 18:00 CWYJ 101800Z AUTO 00000KT 06/05 RMK AO1 SLP204 T00620053 53004
KBLI - Bellingham, Washington, USA
Distance from station: NNW 75mi, 121km
Updated: 12/10/2019 9:53am
Haze, Overcast
Haze, Overcast
 Wind from NNE
Wind: NNE 6 mph , 9 km/h
Temperature: 43°F , 6°C
Wind Chill: 39°F , 4°C
Dew Point: 36°F , 2°C
Humidity: 76%
Barometer: 30.15 inHg , 1021 hPa
Summary: Haze
Clouds: Overcast
Visibility: 3 miles , 5 km
Cloud details: Mostly cloudy 200 ft
Overcast 1000 ft
2019/12/10 17:53 KBLI 101753Z 03005KT 3SM HZ BKN002 OVC010 06/02 A3015 RMK AO2 SLP220 T00610022 10061 20050 53000